Time;durP1;ratioP1;P1;durP2;ratioP2;P2;SDS_P1;SDS_P2;PMS_P1;PMS_P2;Temp;Humidity;BMP_temperature;BMP_pressure;BME280_temperature;BME280_humidity;BME280_pressure;Samples;Min_cycle;Max_cycle;Signal;HPM_P1;HPM_P2
2023/05/15 00:00:30;;;;;;;44.20;24.20;;;;;;;11.37;100.00;101477.66;5054040;22;20017;-50
2023/05/15 00:02:56;;;;;;;49.00;24.30;;;;;;;11.35;100.00;101484.53;5244930;22;20132;-70
2023/05/15 00:05:22;;;;;;;49.00;24.33;;;;;;;11.31;100.00;101486.19;5122604;22;20063;-55
2023/05/15 00:07:47;;;;;;;47.05;24.35;;;;;;;11.30;100.00;101473.97;5030549;28;20029;-56
2023/05/15 00:10:12;;;;;;;45.33;24.15;;;;;;;11.28;100.00;101475.66;5123030;22;20142;-52
2023/05/15 00:15:03;;;;;;;47.05;24.27;;;;;;;11.27;100.00;101468.66;5135510;22;20053;-53
2023/05/15 00:17:29;;;;;;;48.35;24.45;;;;;;;11.28;100.00;101473.03;5056798;23;20623;-71
2023/05/15 00:19:56;;;;;;;50.90;24.85;;;;;;;11.30;100.00;101465.25;5174750;23;20524;-71
2023/05/15 00:22:20;;;;;;;47.70;24.75;;;;;;;11.27;100.00;101463.44;5049004;22;20140;-56
2023/05/15 00:24:45;;;;;;;48.97;25.35;;;;;;;11.24;100.00;101468.56;5032390;28;20028;-56
2023/05/15 00:27:10;;;;;;;45.97;23.92;;;;;;;11.21;100.00;101467.56;5049999;22;20104;-56
2023/05/15 00:29:35;;;;;;;49.20;25.70;;;;;;;11.14;100.00;101462.19;5175623;22;20452;-56
2023/05/15 00:32:01;;;;;;;47.08;25.15;;;;;;;11.12;100.00;101470.78;5143016;23;20671;-55
2023/05/15 00:34:26;;;;;;;47.85;25.63;;;;;;;11.07;100.00;101459.34;5071805;22;20061;-71
2023/05/15 00:39:20;;;;;;;48.42;24.63;;;;;;;10.93;100.00;101457.19;5192094;23;20234;-70
2023/05/15 00:41:47;;;;;;;54.83;25.70;;;;;;;10.80;100.00;101455.00;5096789;23;20532;-70
2023/05/15 00:44:15;;;;;;;51.38;26.38;;;;;;;10.71;100.00;101454.72;5113379;22;20130;-71
2023/05/15 00:46:41;;;;;;;53.03;26.45;;;;;;;10.69;100.00;101462.47;5072954;23;20057;-52
2023/05/15 00:49:12;;;;;;;50.22;26.58;;;;;;;10.70;100.00;101446.00;5079552;22;20052;-56
2023/05/15 00:51:39;;;;;;;54.20;27.02;;;;;;;10.71;100.00;101447.75;5262792;22;20501;-71
2023/05/15 00:56:42;;;;;;;48.25;25.70;;;;;;;10.66;100.00;101449.34;4968938;23;20065;-71
2023/05/15 00:59:09;;;;;;;50.78;25.45;;;;;;;10.64;100.00;101450.13;5169126;22;20065;-71
2023/05/15 01:04:12;;;;;;;51.58;26.15;;;;;;;10.53;100.00;101448.06;5018489;28;20061;-54
2023/05/15 01:06:37;;;;;;;51.47;26.77;;;;;;;10.50;100.00;101436.63;5019506;22;20484;-51
2023/05/15 01:09:05;;;;;;;55.30;26.63;;;;;;;10.47;100.00;101437.44;5142195;22;20057;-71
2023/05/15 01:11:37;;;;;;;50.28;26.23;;;;;;;10.42;100.00;101436.38;5097484;22;21256;-71
2023/05/15 01:14:06;;;;;;;53.25;26.65;;;;;;;10.40;100.00;101436.31;5129583;23;20068;-71
2023/05/15 01:19:03;;;;;;;55.30;26.95;;;;;;;10.43;100.00;101428.63;5013178;22;20131;-71
2023/05/15 01:21:37;;;;;;;54.95;26.15;;;;;;;10.45;100.00;101439.09;5125258;22;20068;-56
2023/05/15 01:36:58;;;;;;;53.28;27.30;;;;;;;10.38;100.00;101431.91;5004799;28;20509;-56
2023/05/15 01:39:27;;;;;;;55.35;27.10;;;;;;;10.31;100.00;101428.19;5002903;28;20088;-56
2023/05/15 01:42:09;;;;;;;55.88;27.33;;;;;;;10.23;100.00;101427.91;5007271;28;20820;-55
2023/05/15 01:44:39;;;;;;;57.75;27.92;;;;;;;10.15;100.00;101424.13;5037619;22;20041;-71
2023/05/15 01:47:07;;;;;;;;;;;;;;;10.16;100.00;101430.25;5036694;28;20025;-71
2023/05/15 01:49:34;;;;;;;57.13;26.45;;;;;;;10.10;100.00;101423.09;5149225;22;20483;-55
2023/05/15 01:54:32;;;;;;;61.13;27.65;;;;;;;9.96;100.00;101426.94;5158306;22;20057;-71
2023/05/15 01:56:58;;;;;;;58.42;27.33;;;;;;;9.93;100.00;101422.50;5120428;22;20053;-71
2023/05/15 01:59:24;;;;;;;58.17;27.83;;;;;;;9.93;100.00;101406.88;5216756;22;20449;-71
2023/05/15 02:01:50;;;;;;;58.95;27.77;;;;;;;9.95;100.00;101413.06;5067518;23;20049;-55
2023/05/15 02:06:46;;;;;;;57.55;28.25;;;;;;;10.05;100.00;101411.63;5054576;22;20094;-55
2023/05/15 02:09:12;;;;;;;57.78;26.23;;;;;;;10.09;100.00;101414.41;5113244;22;20064;-71
2023/05/15 02:11:38;;;;;;;53.67;26.67;;;;;;;10.17;100.00;101412.06;5186981;22;20057;-55
2023/05/15 02:14:04;;;;;;;53.53;26.25;;;;;;;10.20;100.00;101412.16;5131034;23;20537;-56
2023/05/15 02:16:29;;;;;;;53.85;27.23;;;;;;;10.18;100.00;101407.75;5185389;22;21607;-51
2023/05/15 02:18:55;;;;;;;56.03;27.90;;;;;;;10.21;100.00;101408.75;5063931;22;20053;-55
2023/05/15 02:21:20;;;;;;;58.05;26.58;;;;;;;10.24;100.00;101421.00;5048139;23;20197;-71
2023/05/15 02:23:46;;;;;;;59.53;28.90;;;;;;;10.24;100.00;101413.19;5170554;22;20429;-71
2023/05/15 02:31:30;;;;;;;59.03;27.73;;;;;;;10.27;100.00;101413.28;5178181;22;20059;-71
2023/05/15 02:36:43;;;;;;;59.97;28.35;;;;;;;10.27;100.00;101418.50;5047303;23;20079;-55
2023/05/15 02:46:47;;;;;;;62.78;29.85;;;;;;;9.90;100.00;101428.47;5162637;22;20681;-56
2023/05/15 02:49:13;;;;;;;68.70;29.90;;;;;;;9.84;100.00;101433.47;5115381;23;20049;-50
2023/05/15 02:54:05;;;;;;;63.80;28.48;;;;;;;9.70;100.00;101433.00;5070480;23;20489;-71
2023/05/15 02:56:30;;;;;;;65.38;30.30;;;;;;;9.66;100.00;101433.72;5058487;23;20088;-55
2023/05/15 02:58:56;;;;;;;61.63;28.85;;;;;;;9.62;100.00;101428.34;5049073;23;20104;-71
2023/05/15 03:01:21;;;;;;;73.63;30.52;;;;;;;9.55;100.00;101415.09;5024159;28;20064;-71
2023/05/15 03:06:17;;;;;;;73.38;30.45;;;;;;;9.43;100.00;101425.03;5022042;28;20049;-71
2023/05/15 03:08:43;;;;;;;69.65;30.90;;;;;;;9.42;100.00;101414.59;5046153;23;20049;-71
2023/05/15 03:11:08;;;;;;;68.10;30.55;;;;;;;9.38;100.00;101410.97;5004093;28;20033;-71
2023/05/15 03:13:33;;;;;;;64.95;29.55;;;;;;;9.36;100.00;101415.25;5034532;23;20060;-51
2023/05/15 03:15:58;;;;;;;69.13;30.02;;;;;;;9.35;100.00;101416.06;5075333;23;20055;-70
2023/05/15 03:21:01;;;;;;;74.35;30.50;;;;;;;9.27;100.00;101414.88;5177645;22;20053;-55
2023/05/15 03:23:27;;;;;;;71.32;30.52;;;;;;;9.23;100.00;101419.97;5153989;22;20065;-55
2023/05/15 03:25:52;;;;;;;74.18;31.27;;;;;;;9.18;100.00;101407.59;5064917;22;20049;-51
2023/05/15 03:28:17;;;;;;;72.78;30.08;;;;;;;9.13;100.00;101415.22;5181069;22;20068;-56
2023/05/15 03:30:43;;;;;;;70.05;29.23;;;;;;;9.13;100.00;101404.84;5089517;23;20149;-71
2023/05/15 03:33:09;;;;;;;76.75;31.13;;;;;;;9.15;100.00;101408.41;4969363;23;1147288;-55
2023/05/15 03:38:05;;;;;;;72.68;29.25;;;;;;;9.06;100.00;101410.63;5053601;23;20413;-49
2023/05/15 03:40:30;;;;;;;76.07;32.25;;;;;;;9.03;100.00;101403.59;5013850;28;20029;-51
2023/05/15 03:42:56;;;;;;;72.82;30.13;;;;;;;9.04;100.00;101410.56;5222652;22;20044;-70
2023/05/15 03:47:52;;;;;;;72.13;31.05;;;;;;;9.02;100.00;101400.94;5044370;22;20241;-71
2023/05/15 03:50:19;;;;;;;73.18;30.25;;;;;;;9.03;100.00;101402.72;5223753;23;20056;-56
2023/05/15 03:58:01;;;;;;;72.20;30.05;;;;;;;8.97;100.00;101390.38;5000400;22;20134;-71
2023/05/15 04:02:56;;;;;;;72.07;29.75;;;;;;;8.98;100.00;101396.44;5069593;22;20057;-71
2023/05/15 04:05:21;;;;;;;70.15;29.73;;;;;;;8.97;100.00;101399.88;5107958;22;20123;-55
2023/05/15 04:07:47;;;;;;;70.25;31.10;;;;;;;8.96;100.00;101398.09;5039887;28;20044;-55
2023/05/15 04:12:42;;;;;;;72.90;30.38;;;;;;;8.98;100.00;101396.44;5038491;23;20116;-56
2023/05/15 04:15:22;;;;;;;75.07;31.70;;;;;;;8.99;100.00;101390.41;5058666;22;20046;-54
2023/05/15 04:17:50;;;;;;;72.10;30.77;;;;;;;8.96;100.00;101390.31;5009044;28;20550;-50
2023/05/15 04:22:46;;;;;;;83.18;32.58;;;;;;;8.97;100.00;101392.09;5041492;22;21067;-51
2023/05/15 04:25:13;;;;;;;80.50;31.35;;;;;;;9.01;100.00;101391.38;5069183;22;20080;-56
2023/05/15 04:27:39;;;;;;;86.47;32.92;;;;;;;9.03;100.00;101402.72;5085004;22;20060;-71
2023/05/15 04:32:38;;;;;;;90.75;32.38;;;;;;;9.06;100.00;101400.22;5043194;23;20412;-70
2023/05/15 04:38:00;;;;;;;90.38;31.05;;;;;;;9.02;100.00;101406.13;5112328;22;20315;31
2023/05/15 04:40:25;;;;;;;88.82;33.35;;;;;;;9.03;100.00;101407.91;4941322;28;20050;-56
2023/05/15 04:42:51;;;;;;;86.22;31.77;;;;;;;9.06;100.00;101413.22;5164260;23;20603;-71
2023/05/15 04:45:16;;;;;;;86.90;31.08;;;;;;;9.06;100.00;101418.44;5029647;28;20029;-71
2023/05/15 04:47:41;;;;;;;94.47;34.33;;;;;;;9.09;100.00;101422.88;5072607;23;20111;-52
2023/05/15 04:50:08;;;;;;;87.22;29.75;;;;;;;9.08;100.00;101426.28;5102407;23;20152;-71
2023/05/15 04:52:33;;;;;;;81.95;29.90;;;;;;;9.04;100.00;101428.75;5022837;22;20053;-55
2023/05/15 04:54:58;;;;;;;86.45;32.53;;;;;;;9.01;100.00;101430.38;5112134;22;20415;-51
2023/05/15 04:57:24;;;;;;;89.40;33.35;;;;;;;9.00;100.00;101428.59;5089595;22;20081;-55
2023/05/15 04:59:50;;;;;;;88.28;31.10;;;;;;;9.03;100.00;101426.09;5046082;22;20029;-55
2023/05/15 05:02:18;;;;;;;86.00;32.38;;;;;;;9.04;100.00;101430.50;5026554;28;20108;-55
2023/05/15 05:04:44;;;;;;;87.75;32.92;;;;;;;8.99;100.00;101437.19;5028202;28;20040;-56
2023/05/15 05:07:10;;;;;;;73.43;24.10;;;;;;;9.14;100.00;101437.81;5112752;23;20053;-71
2023/05/15 05:09:35;;;;;;;76.07;27.77;;;;;;;9.09;100.00;101438.47;5069383;22;20057;-71
2023/05/15 05:12:03;;;;;;;90.82;30.15;;;;;;;9.01;100.00;101433.84;4791838;22;20048;-71
2023/05/15 05:14:30;;;;;;;88.47;31.65;;;;;;;8.99;100.00;101432.00;5107356;22;20140;-71
2023/05/15 05:16:55;;;;;;;93.70;33.15;;;;;;;8.98;100.00;101445.81;5077357;22;20024;-71
2023/05/15 05:19:20;;;;;;;81.82;30.25;;;;;;;8.97;100.00;101444.06;5045260;28;20047;-70
2023/05/15 05:21:46;;;;;;;87.03;31.95;;;;;;;8.97;100.00;101439.75;5066590;22;20611;-56
2023/05/15 05:24:11;;;;;;;87.43;30.58;;;;;;;9.03;100.00;101437.38;5134037;22;20049;-71
2023/05/15 05:26:36;;;;;;;85.32;31.80;;;;;;;9.05;100.00;101443.53;5220113;22;20714;-52
2023/05/15 05:29:02;;;;;;;85.07;31.52;;;;;;;9.11;100.00;101447.19;5016286;28;20029;-53
2023/05/15 05:31:27;;;;;;;87.75;31.92;;;;;;;9.18;100.00;101455.31;5154565;23;20128;-71
2023/05/15 05:33:52;;;;;;;89.63;31.40;;;;;;;9.28;100.00;101456.53;5175644;22;20036;-55
2023/05/15 05:36:18;;;;;;;90.70;32.22;;;;;;;9.32;100.00;101461.03;5170790;22;20563;-72
2023/05/15 05:38:43;;;;;;;76.80;29.00;;;;;;;9.38;100.00;101460.38;5229006;23;20045;-56
2023/05/15 05:43:37;;;;;;;77.70;30.58;;;;;;;9.36;100.00;101469.84;5170928;23;20488;-71
2023/05/15 05:46:03;;;;;;;73.45;29.45;;;;;;;9.39;100.00;101464.75;5065308;22;20119;-70
2023/05/15 05:48:28;;;;;;;81.22;29.80;;;;;;;9.45;100.00;101471.91;5011600;28;20022;-69
2023/05/15 05:50:54;;;;;;;71.95;26.70;;;;;;;9.47;100.00;101465.06;5187122;22;20841;-72
2023/05/15 05:55:51;;;;;;;61.95;24.58;;;;;;;9.54;100.00;101469.66;5264919;22;20436;-55
2023/05/15 05:58:17;;;;;;;67.53;26.75;;;;;;;9.52;100.00;101463.53;5100337;23;20044;-52
2023/05/15 06:00:43;;;;;;;70.22;29.00;;;;;;;9.46;100.00;101453.78;5044906;22;20032;-55
2023/05/15 06:05:33;;;;;;;70.97;29.77;;;;;;;9.43;100.00;101461.47;5153772;22;20076;-55
2023/05/15 06:08:00;;;;;;;66.78;25.30;;;;;;;9.51;100.00;101464.34;5094189;22;20084;-71
2023/05/15 06:10:25;;;;;;;66.95;26.02;;;;;;;9.68;100.00;101460.66;5040836;28;20869;-71
2023/05/15 06:12:51;;;;;;;65.30;28.02;;;;;;;9.72;100.00;101459.94;5210646;23;20349;-56
2023/05/15 06:15:16;;;;;;;74.88;28.63;;;;;;;9.82;100.00;101461.19;5117862;23;20072;-55
2023/05/15 06:17:41;;;;;;;71.32;29.92;;;;;;;9.74;100.00;101471.28;5198276;22;20053;-71
2023/05/15 06:20:07;;;;;;;67.97;28.27;;;;;;;9.78;100.00;101469.69;5099680;23;20065;-71
2023/05/15 06:25:05;;;;;;;66.43;26.70;;;;;;;9.96;100.00;101464.25;5052434;22;20440;-56
2023/05/15 06:30:02;;;;;;;59.47;25.73;;;;;;;10.19;100.00;101466.81;5062800;23;20461;-55
2023/05/15 06:32:27;;;;;;;65.65;27.33;;;;;;;10.13;100.00;101464.88;5080342;23;20056;-71
2023/05/15 06:34:53;;;;;;;61.95;26.85;;;;;;;10.00;100.00;101465.28;5163241;22;20080;-71
2023/05/15 06:37:18;;;;;;;69.05;29.58;;;;;;;9.88;100.00;101466.59;5099099;23;20680;-71
2023/05/15 06:39:43;;;;;;;68.90;27.63;;;;;;;9.80;100.00;101464.53;5190467;22;20061;-70
2023/05/15 06:42:09;;;;;;;69.90;29.70;;;;;;;9.82;100.00;101452.47;5098663;22;20048;-56
2023/05/15 06:44:34;;;;;;;70.60;30.85;;;;;;;9.86;100.00;101456.94;5076928;23;20041;-71
2023/05/15 06:47:00;;;;;;;63.65;28.33;;;;;;;9.98;100.00;101453.91;5037493;23;20133;-56
2023/05/15 06:49:25;;;;;;;69.65;30.85;;;;;;;10.14;100.00;101457.94;5082257;22;20136;-56
2023/05/15 06:54:20;;;;;;;68.68;30.50;;;;;;;10.40;100.00;101461.50;5243478;22;20060;-56
2023/05/15 06:56:46;;;;;;;68.85;31.85;;;;;;;10.52;100.00;101448.88;5074915;23;20060;-70
2023/05/15 06:59:11;;;;;;;71.65;32.33;;;;;;;10.64;100.00;101456.22;5045463;28;20112;-70
2023/05/15 07:01:37;;;;;;;73.88;33.22;;;;;;;10.83;100.00;101460.31;5231567;23;20020;-55
2023/05/15 07:04:02;;;;;;;71.78;31.80;;;;;;;10.90;100.00;101453.56;5097361;22;20061;-56
2023/05/15 07:09:05;;;;;;;71.70;29.98;;;;;;;11.15;100.00;101452.63;5081434;22;20049;-70
2023/05/15 07:11:32;;;;;;;66.70;32.33;;;;;;;11.15;100.00;101450.00;5061206;23;20038;-56
2023/05/15 07:16:29;;;;;;;57.58;27.90;;;;;;;11.28;100.00;101453.88;5079522;22;20153;-53
2023/05/15 07:18:55;;;;;;;58.35;28.88;;;;;;;11.36;98.73;101459.34;5110697;22;20061;-57
2023/05/15 07:21:20;;;;;;;57.78;27.75;;;;;;;11.57;97.24;101454.78;5064853;23;20042;-70
2023/05/15 07:23:45;;;;;;;58.72;28.45;;;;;;;11.53;95.89;101463.34;5059294;23;20048;-54
2023/05/15 07:28:36;;;;;;;59.13;28.27;;;;;;;11.49;96.71;101456.25;5099263;23;20063;-54
2023/05/15 07:31:02;;;;;;;59.13;28.73;;;;;;;11.54;97.97;101453.78;4996058;22;20061;-71
2023/05/15 07:33:27;;;;;;;61.63;28.73;;;;;;;11.69;98.75;101450.72;5103574;22;20069;-71
2023/05/15 07:35:52;;;;;;;53.15;26.60;;;;;;;11.81;97.02;101443.25;5147440;22;20045;-71
2023/05/15 07:38:17;;;;;;;58.75;29.25;;;;;;;11.84;98.05;101443.34;5091367;22;20115;-54
2023/05/15 07:40:43;;;;;;;60.97;30.48;;;;;;;11.95;97.18;101447.16;5011133;23;20053;-71
2023/05/15 07:43:08;;;;;;;68.88;32.05;;;;;;;12.11;98.24;101445.00;5085567;23;20029;-56
2023/05/15 07:45:34;;;;;;;64.00;33.03;;;;;;;12.27;99.50;101441.06;4996964;22;20064;-71
2023/05/15 07:48:12;;;;;;;64.40;32.40;;;;;;;12.38;95.81;101449.16;5075091;23;20223;-71
2023/05/15 07:50:37;;;;;;;63.73;32.03;;;;;;;12.46;95.68;101445.91;4837602;22;1079055;-56
2023/05/15 07:53:02;;;;;;;62.60;33.05;;;;;;;12.66;92.81;101443.78;5064445;23;21154;-70
2023/05/15 07:57:58;;;;;;;68.22;33.95;;;;;;;12.86;91.71;101433.81;5088126;22;20056;-96
2023/05/15 08:00:23;;;;;;;60.78;30.88;;;;;;;12.91;92.12;101438.28;5031400;28;20033;-96
2023/05/15 08:02:49;;;;;;;65.65;31.50;;;;;;;12.88;91.10;101439.06;5038804;28;20039;-96
2023/05/15 08:06:15;;;;;;;;;;;;;;;;;;;;;
2023/05/15 08:08:40;;;;;;;57.83;28.88;;;;;;;13.03;90.28;101441.16;5125361;22;20046;-54
2023/05/15 08:11:05;;;;;;;58.60;32.15;;;;;;;13.18;87.84;101436.28;5102862;23;20067;-56
2023/05/15 08:13:31;;;;;;;55.88;29.50;;;;;;;13.22;89.16;101440.75;5062740;22;20393;-54
2023/05/15 08:15:56;;;;;;;61.80;32.35;;;;;;;13.36;85.88;101435.81;5062718;23;20068;-96
2023/05/15 08:18:22;;;;;;;62.95;33.95;;;;;;;13.39;88.77;101429.78;5019768;28;20156;-96
2023/05/15 08:20:48;;;;;;;64.63;33.33;;;;;;;13.55;86.76;101428.38;5018669;28;20027;-96
2023/05/15 08:23:16;;;;;;;58.22;32.15;;;;;;;13.79;86.38;101427.09;5028556;28;20021;-96
2023/05/15 08:25:41;;;;;;;63.60;32.55;;;;;;;13.91;86.85;101425.59;5019192;28;20029;-96
2023/05/15 08:28:13;;;;;;;65.90;34.30;;;;;;;13.97;86.40;101427.44;5018010;28;20552;-96
2023/05/15 08:30:41;;;;;;;62.10;33.58;;;;;;;14.19;85.50;101423.50;5016402;28;20025;-96
2023/05/15 08:33:07;;;;;;;69.32;35.80;;;;;;;14.30;84.43;101426.31;5034669;28;20025;-96
2023/05/15 08:35:32;;;;;;;65.82;35.45;;;;;;;14.34;85.58;101427.22;5019981;28;20048;-96
2023/05/15 08:37:58;;;;;;;73.45;37.47;;;;;;;14.42;85.35;101423.91;5033988;28;20052;-96
2023/05/15 08:40:24;;;;;;;72.47;37.67;;;;;;;14.55;84.19;101437.22;5016028;28;20027;-96
2023/05/15 08:43:01;;;;;;;68.07;35.50;;;;;;;14.56;83.45;101431.13;5019971;28;20021;-96
2023/05/15 08:45:27;;;;;;;75.10;38.15;;;;;;;14.58;84.51;101426.78;5035410;28;20030;-96
2023/05/15 08:47:54;;;;;;;74.72;35.13;;;;;;;14.68;82.26;101430.47;5031882;28;20030;-96
2023/05/15 08:50:22;;;;;;;77.65;39.17;;;;;;;14.59;82.01;101428.53;5014597;28;20029;-96
2023/05/15 08:52:50;;;;;;;77.00;40.03;;;;;;;14.51;82.76;101433.66;5012540;28;20105;-96
2023/05/15 08:55:16;;;;;;;80.75;41.28;;;;;;;14.41;83.81;101431.72;5010611;28;20040;-96
2023/05/15 08:57:43;;;;;;;78.28;40.22;;;;;;;14.42;83.11;101425.63;5012468;28;20059;-96
2023/05/15 09:00:10;;;;;;;76.50;39.58;;;;;;;14.34;83.71;101420.25;5019959;28;20033;-96
2023/05/15 09:02:37;;;;;;;81.32;41.90;;;;;;;14.31;85.59;101425.47;5012682;28;20525;-96
2023/05/15 09:05:07;;;;;;;80.00;39.83;;;;;;;14.39;84.60;101426.44;5031597;28;20037;-96
2023/05/15 09:07:33;;;;;;;88.13;43.75;;;;;;;14.46;86.60;101426.59;5016990;28;20033;-96
2023/05/15 09:10:00;;;;;;;78.75;41.95;;;;;;;14.71;87.25;101428.75;5016054;28;20022;-96
2023/05/15 09:12:26;;;;;;;74.25;38.65;;;;;;;14.97;81.42;101425.66;5017579;28;20036;-96
2023/05/15 09:15:11;;;;;;;69.60;39.60;;;;;;;15.10;83.16;101427.59;5017895;28;20857;-96
2023/05/15 09:17:37;;;;;;;77.00;41.78;;;;;;;15.17;80.48;101427.72;5024775;28;20009;-96
2023/05/15 09:20:07;;;;;;;72.40;32.47;;;;;;;15.32;78.24;101420.00;5034653;28;20017;-96
2023/05/15 09:22:36;;;;;;;74.00;38.22;;;;;;;15.22;79.48;101432.16;5036080;28;20053;-96
2023/05/15 09:25:04;;;;;;;69.47;36.53;;;;;;;15.15;82.30;101419.81;5040435;28;20049;-96
2023/05/15 09:27:39;;;;;;;76.53;39.37;;;;;;;15.30;83.36;101425.25;5035380;28;20112;-96
2023/05/15 09:32:40;;;;;;;69.63;38.22;;;;;;;15.46;79.20;101418.44;4205317;22;20029;-56
2023/05/15 09:37:32;;;;;;;58.75;32.08;;;;;;;15.32;79.17;101420.00;4841045;23;20095;-55
2023/05/15 09:40:08;;;;;;;70.55;36.53;;;;;;;15.27;80.56;101434.84;5081204;23;20049;-96
2023/05/15 09:42:37;;;;;;;67.65;35.88;;;;;;;15.19;81.11;101428.59;5051971;28;20026;-96
2023/05/15 09:45:03;;;;;;;51.78;29.13;;;;;;;15.18;81.56;101424.19;5033705;28;20037;-96
2023/05/15 09:47:28;;;;;;;53.03;27.95;;;;;;;15.22;80.78;101428.63;5045819;28;20469;-96
2023/05/15 09:49:55;;;;;;;46.92;28.10;;;;;;;15.16;78.76;101426.81;5027952;28;20030;-96
2023/05/15 09:52:22;;;;;;;49.67;27.80;;;;;;;15.16;80.05;101421.56;5027550;28;20415;-96
2023/05/15 09:54:48;;;;;;;50.35;28.77;;;;;;;15.24;82.29;101421.69;5026871;28;20025;-96
2023/05/15 09:57:14;;;;;;;52.65;28.48;;;;;;;15.20;79.58;101428.63;5030073;28;20033;-96
2023/05/15 09:59:47;;;;;;;47.75;25.95;;;;;;;15.08;79.64;101418.84;5034039;28;20393;-96
2023/05/15 10:02:21;;;;;;;53.58;27.85;;;;;;;14.94;83.07;101426.50;5047702;28;20033;-96
2023/05/15 10:04:53;;;;;;;53.72;28.83;;;;;;;14.90;82.34;101429.94;5030945;28;20022;-96
2023/05/15 10:07:46;;;;;;;50.80;29.30;;;;;;;14.85;82.34;101436.84;5032314;28;20045;-96
2023/05/15 10:10:12;;;;;;;53.28;29.15;;;;;;;14.89;84.73;101430.81;5028018;28;20033;-96
2023/05/15 10:12:37;;;;;;;56.15;28.88;;;;;;;14.89;83.65;101432.56;5029978;28;20063;-96
2023/05/15 10:15:04;;;;;;;55.25;27.70;;;;;;;14.90;81.41;101435.19;5026580;28;20036;-96
2023/05/15 10:17:33;;;;;;;56.25;28.98;;;;;;;14.87;82.21;101437.75;5031849;28;20480;-96
2023/05/15 10:20:00;;;;;;;58.83;29.83;;;;;;;14.87;82.49;101434.25;5028457;28;20017;-96
2023/05/15 10:22:31;;;;;;;50.72;28.42;;;;;;;14.80;83.39;101440.25;5032284;28;20087;-96
2023/05/15 10:25:17;;;;;;;44.08;22.05;;;;;;;14.76;81.80;101445.47;5028793;28;20032;-96
2023/05/15 10:27:42;;;;;;;55.63;28.88;;;;;;;14.63;83.78;101440.88;5031053;28;20029;-96
2023/05/15 10:30:13;;;;;;;53.85;28.63;;;;;;;14.66;83.35;101445.31;5026773;28;20497;-96
2023/05/15 10:32:42;;;;;;;54.33;29.23;;;;;;;14.63;85.14;101443.50;5027999;28;20034;-96
2023/05/15 10:35:09;;;;;;;60.47;30.42;;;;;;;14.57;85.26;101451.22;5034822;28;20024;-96
2023/05/15 10:37:40;;;;;;;54.40;30.00;;;;;;;14.55;85.04;101442.47;5033707;28;20052;-96
2023/05/15 10:40:09;;;;;;;58.67;29.83;;;;;;;14.51;85.14;101445.88;5024187;22;20061;-54
2023/05/15 10:42:35;;;;;;;53.43;29.17;;;;;;;14.55;85.01;101442.47;5096331;22;20114;-70
2023/05/15 10:45:01;;;;;;;54.28;29.63;;;;;;;14.54;84.92;101441.59;5090559;22;20080;-54
2023/05/15 10:47:32;;;;;;;59.03;30.42;;;;;;;14.46;88.06;101443.19;5101303;23;20070;-96
2023/05/15 10:50:00;;;;;;;61.03;30.50;;;;;;;14.45;87.62;101436.16;5014839;28;20029;-96
2023/05/15 10:52:25;;;;;;;58.10;31.20;;;;;;;14.43;87.31;101438.75;5011967;28;20168;-96
2023/05/15 10:54:55;;;;;;;56.65;29.55;;;;;;;14.56;86.27;101436.38;5009436;28;20648;-96
2023/05/15 10:57:21;;;;;;;51.78;27.40;;;;;;;14.51;83.87;101438.00;5012545;28;20017;-96
2023/05/15 10:59:47;;;;;;;56.97;31.20;;;;;;;14.43;85.63;101436.16;5018136;28;20034;-96
2023/05/15 11:02:20;;;;;;;60.97;31.48;;;;;;;14.37;87.59;101446.53;5008342;28;20031;-96
2023/05/15 11:04:46;;;;;;;57.95;30.83;;;;;;;14.38;88.60;101443.06;5001671;28;20483;-96
2023/05/15 11:07:19;;;;;;;55.40;28.30;;;;;;;14.49;88.79;101442.38;5016016;28;20032;-96
2023/05/15 11:09:44;;;;;;;62.05;32.08;;;;;;;14.50;87.66;101444.13;5014583;28;20494;-96
2023/05/15 11:12:12;;;;;;;60.83;30.80;;;;;;;14.43;87.34;101440.50;5006629;28;20033;-96
2023/05/15 11:15:11;;;;;;;59.83;30.70;;;;;;;14.43;87.48;101449.25;5008327;28;20079;-96
2023/05/15 11:17:39;;;;;;;59.72;29.15;;;;;;;14.36;86.22;101442.13;4992203;28;20042;-96
2023/05/15 11:20:05;;;;;;;58.30;31.07;;;;;;;14.26;87.45;101441.13;5012486;28;20896;-96
2023/05/15 11:22:34;;;;;;;59.45;33.22;;;;;;;14.18;88.15;101445.31;5021178;28;20319;-96
2023/05/15 11:25:07;;;;;;;;;;;;;;;14.29;87.45;101439.38;5016857;28;20063;-96
2023/05/15 11:27:39;;;;;;;63.33;32.45;;;;;;;14.11;89.28;101438.19;5011855;28;19913;-96
2023/05/15 11:30:16;;;;;;;64.55;33.97;;;;;;;14.07;89.68;101429.38;5007490;28;20037;-96
2023/05/15 11:32:46;;;;;;;65.85;34.40;;;;;;;14.11;89.44;101435.56;5002762;28;20021;-96
2023/05/15 11:35:12;;;;;;;;;;;;;;;14.15;87.27;101441.75;5014363;28;20029;-96
2023/05/15 11:37:42;;;;;;;69.68;34.35;;;;;;;13.99;88.80;101435.34;5015486;28;20004;-96
2023/05/15 11:40:12;;;;;;;73.88;37.05;;;;;;;13.96;89.94;101438.81;5014171;28;20049;-96
2023/05/15 11:42:39;;;;;;;72.55;35.45;;;;;;;13.92;89.14;101439.59;5014531;28;20044;-96
2023/05/15 11:45:09;;;;;;;73.43;34.78;;;;;;;13.98;89.32;101433.59;5011757;28;20895;-96
2023/05/15 11:47:35;;;;;;;68.03;34.33;;;;;;;13.95;90.09;101423.03;4999524;28;20054;-96
2023/05/15 11:50:05;;;;;;;71.97;35.28;;;;;;;13.99;90.62;101431.00;4997693;28;20036;-96
2023/05/15 11:52:31;;;;;;;67.50;33.63;;;;;;;14.03;89.09;101431.91;4995049;28;20026;-96
2023/05/15 11:54:58;;;;;;;71.50;34.67;;;;;;;14.08;90.50;101430.28;4997267;28;20022;-96
2023/05/15 11:57:23;;;;;;;69.68;35.40;;;;;;;14.06;90.97;101438.13;4993135;28;20029;-96
2023/05/15 11:59:53;;;;;;;71.60;35.47;;;;;;;14.11;90.10;101437.28;4997984;28;20040;-96
2023/05/15 12:02:18;;;;;;;68.57;34.00;;;;;;;14.09;90.16;101435.56;4996892;28;20022;-96
2023/05/15 12:04:56;;;;;;;67.28;32.42;;;;;;;14.11;89.74;101439.91;5002859;28;20068;-96
2023/05/15 12:07:22;;;;;;;59.55;30.35;;;;;;;14.03;89.68;101432.81;5000011;28;20033;-96
2023/05/15 12:09:53;;;;;;;66.07;32.33;;;;;;;14.02;90.31;101436.28;4999764;28;20038;-96
2023/05/15 12:12:20;;;;;;;62.35;31.92;;;;;;;13.98;90.12;101433.59;5001479;28;20115;-96
2023/05/15 12:14:48;;;;;;;74.32;34.30;;;;;;;13.97;90.53;101435.31;5008590;28;20021;-96
2023/05/15 12:17:14;;;;;;;70.80;34.72;;;;;;;13.85;91.11;101437.72;5019969;23;20092;-54
2023/05/15 12:19:40;;;;;;;80.40;34.25;;;;;;;13.90;91.74;101443.91;5011183;28;20634;-54
2023/05/15 12:22:06;;;;;;;84.60;36.88;;;;;;;13.84;90.66;101441.16;5005728;28;20033;-54
2023/05/15 12:24:34;;;;;;;88.13;40.28;;;;;;;13.76;94.14;101437.50;4996688;28;20037;-54
2023/05/15 12:27:00;;;;;;;88.57;40.35;;;;;;;13.76;92.81;101441.03;4996289;28;20044;-54
2023/05/15 12:29:25;;;;;;;100.70;43.67;;;;;;;13.73;92.43;101434.00;4998258;28;20038;-54
2023/05/15 12:31:52;;;;;;;97.32;43.85;;;;;;;13.77;92.08;101439.28;4996944;28;20068;-54
2023/05/15 12:34:18;;;;;;;99.18;43.22;;;;;;;13.73;93.39;101435.72;4997500;28;20093;-54
2023/05/15 12:36:44;;;;;;;93.68;41.38;;;;;;;13.78;93.45;101436.69;4991462;28;20034;-54
2023/05/15 12:39:10;;;;;;;89.00;40.05;;;;;;;13.84;94.49;101430.69;4993908;28;20033;-54
2023/05/15 12:41:36;;;;;;;92.65;40.25;;;;;;;13.99;94.22;101428.38;4998588;28;20026;-54
2023/05/15 12:44:02;;;;;;;85.88;40.25;;;;;;;14.04;93.16;101424.09;4997897;28;20021;-54
2023/05/15 12:46:30;;;;;;;92.57;41.92;;;;;;;14.04;94.94;101426.72;4998357;28;20389;-54
2023/05/15 12:49:00;;;;;;;96.25;41.55;;;;;;;14.07;92.96;101428.50;4998492;28;20030;-54
2023/05/15 12:51:25;;;;;;;;;;;;;;;14.06;93.34;101431.97;4997512;28;20065;-54
2023/05/15 12:53:56;;;;;;;93.07;39.80;;;;;;;14.00;92.59;101430.13;4997853;28;20012;-54
2023/05/15 12:56:22;;;;;;;97.78;38.60;;;;;;;14.00;92.39;101432.75;4998326;28;20104;-53